Time;durP1;ratioP1;P1;durP2;ratioP2;P2;SDS_P1;SDS_P2;PMS_P1;PMS_P2;Temp;Humidity;BMP_temperature;BMP_pressure;BME280_temperature;BME280_humidity;BME280_pressure;Samples;Min_cycle;Max_cycle;Signal;HPM_P1;HPM_P2
2021/09/08 00:00:46;;;;;;;1999.90;999.90;;;14.50;99.90;;;;;;5032365;28;20476;-75
2021/09/08 00:03:13;;;;;;;1999.90;999.90;;;14.40;99.90;;;;;;5034464;28;20033;-76
2021/09/08 00:05:39;;;;;;;1999.90;999.90;;;14.40;99.90;;;;;;5041906;28;20570;-76
2021/09/08 00:08:06;;;;;;;1999.90;999.90;;;14.40;99.90;;;;;;5030993;28;20041;-76
2021/09/08 00:10:32;;;;;;;1999.90;999.90;;;14.30;99.90;;;;;;5031751;28;20036;-76
2021/09/08 00:12:58;;;;;;;1999.90;999.90;;;14.20;99.90;;;;;;5033284;28;20041;-76
2021/09/08 00:15:24;;;;;;;1999.90;999.90;;;14.20;99.90;;;;;;5035325;28;20049;-75
2021/09/08 00:17:51;;;;;;;1999.90;999.90;;;14.10;99.90;;;;;;5035429;28;20506;-76
2021/09/08 00:20:17;;;;;;;1999.90;999.90;;;14.00;99.90;;;;;;5035283;28;20045;-76
2021/09/08 00:22:44;;;;;;;1999.90;999.90;;;14.10;99.90;;;;;;5035211;28;20040;-75
2021/09/08 00:25:12;;;;;;;1999.90;999.90;;;14.10;99.90;;;;;;5035014;28;20049;-77
2021/09/08 00:27:39;;;;;;;1999.90;999.90;;;14.00;99.90;;;;;;5035000;28;20045;-76
2021/09/08 00:30:06;;;;;;;1999.90;999.90;;;14.00;99.90;;;;;;5034470;28;20053;-76
2021/09/08 00:32:34;;;;;;;1999.90;999.90;;;14.00;99.90;;;;;;5035166;28;20045;-76
2021/09/08 00:35:02;;;;;;;1999.90;999.90;;;13.90;99.90;;;;;;5034619;28;20041;-76
2021/09/08 00:37:29;;;;;;;1999.90;999.90;;;13.80;99.90;;;;;;5034709;28;20045;-76
2021/09/08 00:39:56;;;;;;;1999.90;999.90;;;13.70;99.90;;;;;;5034572;28;20467;-76
2021/09/08 00:42:22;;;;;;;1999.90;999.90;;;13.80;99.90;;;;;;5048682;28;20037;-75
2021/09/08 00:44:50;;;;;;;1999.90;999.90;;;13.80;99.90;;;;;;5039614;28;20037;-76
2021/09/08 00:47:17;;;;;;;1999.90;999.90;;;13.80;99.90;;;;;;5039786;28;20073;-76
2021/09/08 00:49:45;;;;;;;1999.90;999.90;;;13.90;99.90;;;;;;5034656;28;20041;-75
2021/09/08 00:52:13;;;;;;;1999.90;999.90;;;14.00;99.90;;;;;;5052884;28;20041;-76
2021/09/08 00:54:40;;;;;;;1999.90;999.90;;;14.10;99.90;;;;;;5041678;28;20487;-76
2021/09/08 00:57:10;;;;;;;1999.90;999.90;;;14.00;99.90;;;;;;5051086;28;20503;-76
2021/09/08 00:59:42;;;;;;;1999.90;999.90;;;14.00;99.90;;;;;;5038195;28;20037;-74
2021/09/08 01:02:08;;;;;;;1999.90;999.90;;;14.00;99.90;;;;;;5045661;28;20475;-73
2021/09/08 01:04:36;;;;;;;1999.90;999.90;;;14.00;99.90;;;;;;5035577;28;20375;-76
2021/09/08 01:07:05;;;;;;;1999.90;999.90;;;14.00;99.90;;;;;;5035673;28;20036;-76
2021/09/08 01:09:34;;;;;;;1999.90;999.90;;;13.90;99.90;;;;;;5047707;28;20049;-76
2021/09/08 01:12:03;;;;;;;1999.90;999.90;;;13.90;99.90;;;;;;5042653;28;20049;-75
2021/09/08 01:14:30;;;;;;;1999.90;999.90;;;13.70;99.90;;;;;;5036206;28;20498;-76
2021/09/08 01:16:58;;;;;;;1999.90;999.90;;;13.60;99.90;;;;;;5036640;28;20041;-76
2021/09/08 01:19:24;;;;;;;1999.90;999.90;;;13.60;99.90;;;;;;5041524;28;20037;-76
2021/09/08 01:21:51;;;;;;;1999.90;999.90;;;13.50;99.90;;;;;;5033861;28;20040;-75
2021/09/08 01:24:18;;;;;;;1999.90;999.90;;;13.50;99.90;;;;;;5033766;28;20032;-75
2021/09/08 01:26:47;;;;;;;1999.90;999.90;;;13.50;99.90;;;;;;5033618;28;20057;-75
2021/09/08 01:29:13;;;;;;;1999.90;999.90;;;13.50;99.90;;;;;;5048164;28;20049;-76
2021/09/08 01:31:39;;;;;;;1999.90;999.90;;;13.50;99.90;;;;;;5033993;28;20036;-76
2021/09/08 01:34:06;;;;;;;1999.90;999.90;;;13.50;99.90;;;;;;5048797;28;20029;-76
2021/09/08 01:36:41;;;;;;;1999.90;999.90;;;13.40;99.90;;;;;;5045464;28;20033;-76
2021/09/08 01:39:08;;;;;;;1999.90;999.90;;;13.30;99.90;;;;;;5046004;28;20049;-76
2021/09/08 01:41:35;;;;;;;1999.90;999.90;;;13.20;99.90;;;;;;5048478;28;20029;-76
2021/09/08 01:44:01;;;;;;;1999.90;999.90;;;13.20;99.90;;;;;;5043623;28;20033;-76
2021/09/08 01:46:28;;;;;;;1999.90;999.90;;;13.30;99.90;;;;;;5044806;28;20045;-76
2021/09/08 01:48:54;;;;;;;1999.90;999.90;;;13.30;99.90;;;;;;5036192;28;20030;-76
2021/09/08 01:51:20;;;;;;;1999.90;999.90;;;13.20;99.90;;;;;;5051514;28;20025;-76
2021/09/08 01:53:47;;;;;;;1999.90;999.90;;;13.10;99.90;;;;;;5043485;28;20029;-72
2021/09/08 01:56:15;;;;;;;1999.90;999.90;;;13.10;99.90;;;;;;5047991;28;20040;-74
2021/09/08 01:58:41;;;;;;;1999.90;999.90;;;13.10;99.90;;;;;;5040816;28;20451;-75
2021/09/08 02:01:08;;;;;;;1999.90;999.90;;;13.20;99.90;;;;;;5041169;28;20029;-75
2021/09/08 02:03:34;;;;;;;1999.90;999.90;;;13.30;99.90;;;;;;5033522;28;20034;-75
2021/09/08 02:06:16;;;;;;;1999.90;999.90;;;13.40;99.90;;;;;;5047431;28;20045;-75
2021/09/08 02:08:42;;;;;;;1999.90;999.90;;;13.30;99.90;;;;;;5033173;28;20041;-76
2021/09/08 02:11:08;;;;;;;1999.90;999.90;;;13.20;99.90;;;;;;5032663;28;20052;-75
2021/09/08 02:13:35;;;;;;;1999.90;999.90;;;13.10;99.90;;;;;;5033407;28;20049;-75
2021/09/08 02:16:02;;;;;;;1999.90;999.90;;;13.10;99.90;;;;;;5040866;28;20481;-76
2021/09/08 02:18:28;;;;;;;1999.90;999.90;;;13.20;99.90;;;;;;5038362;28;20068;-76
2021/09/08 02:20:54;;;;;;;1999.90;999.90;;;13.20;99.90;;;;;;5032503;28;20459;-76
2021/09/08 02:23:20;;;;;;;1999.90;999.90;;;13.10;99.90;;;;;;5034071;28;20029;-75
2021/09/08 02:25:46;;;;;;;1999.90;999.90;;;13.00;99.90;;;;;;5049771;28;20049;-74
2021/09/08 02:28:18;;;;;;;1999.90;999.90;;;13.00;99.90;;;;;;5043805;28;20037;-76
2021/09/08 02:30:44;;;;;;;1999.90;999.90;;;13.00;99.90;;;;;;5047408;28;20032;-75
2021/09/08 02:33:10;;;;;;;1999.90;999.90;;;13.00;99.90;;;;;;5032852;28;20466;-76
2021/09/08 02:35:36;;;;;;;1999.90;999.90;;;13.00;99.90;;;;;;5033053;28;20036;-76
2021/09/08 02:38:02;;;;;;;1999.90;999.90;;;13.00;99.90;;;;;;5045960;28;20044;-76
2021/09/08 02:40:29;;;;;;;1999.90;999.90;;;13.00;99.90;;;;;;5032314;28;20471;-76
2021/09/08 02:42:55;;;;;;;1999.90;999.90;;;12.90;99.90;;;;;;5032462;28;20030;-76
2021/09/08 02:45:21;;;;;;;1999.90;999.90;;;12.80;99.90;;;;;;5032727;28;20041;-76
2021/09/08 02:47:47;;;;;;;1999.90;999.90;;;12.80;99.90;;;;;;5031802;28;20048;-75
2021/09/08 02:50:13;;;;;;;1999.90;999.90;;;12.80;99.90;;;;;;5034388;28;20037;-75
2021/09/08 02:52:39;;;;;;;1999.90;999.90;;;12.70;99.90;;;;;;5032198;28;20030;-76
2021/09/08 02:55:07;;;;;;;1999.90;999.90;;;12.70;99.90;;;;;;5046076;28;20033;-75
2021/09/08 02:57:33;;;;;;;1999.90;999.90;;;12.70;99.90;;;;;;5041874;28;20037;-76
2021/09/08 02:59:59;;;;;;;1999.90;999.90;;;12.80;99.90;;;;;;5047024;28;20045;-74
2021/09/08 03:02:25;;;;;;;1999.90;999.90;;;12.70;99.90;;;;;;5032469;28;20029;-76
2021/09/08 03:04:51;;;;;;;1999.90;999.90;;;12.70;99.90;;;;;;5031831;28;20029;-73
2021/09/08 03:07:17;;;;;;;1999.90;999.90;;;12.70;99.90;;;;;;5037728;28;20382;-75
2021/09/08 03:09:44;;;;;;;1999.90;999.90;;;12.60;99.90;;;;;;5045221;28;20459;-75
2021/09/08 03:12:10;;;;;;;1999.90;999.90;;;12.60;99.90;;;;;;5031788;28;20029;-75
2021/09/08 03:14:36;;;;;;;1999.90;999.90;;;12.70;99.90;;;;;;5044137;28;20047;-75
2021/09/08 03:17:02;;;;;;;1999.90;999.90;;;12.60;99.90;;;;;;5038329;28;20040;-75
2021/09/08 03:19:29;;;;;;;1999.90;999.90;;;12.60;99.90;;;;;;5031998;28;20030;-75
2021/09/08 03:21:55;;;;;;;1999.90;999.90;;;12.60;99.90;;;;;;5031441;28;20030;-74
2021/09/08 03:24:21;;;;;;;99.13;37.78;;;12.70;99.90;;;;;;5032154;28;20042;-75
2021/09/08 03:26:47;;;;;;;1999.90;999.90;;;12.70;99.90;;;;;;5031325;28;20928;-74
2021/09/08 03:29:13;;;;;;;645.72;579.85;;;12.70;99.90;;;;;;5031931;28;20033;-75
2021/09/08 03:31:40;;;;;;;1999.90;999.90;;;12.70;99.90;;;;;;5032281;28;20045;-75
2021/09/08 03:34:06;;;;;;;1999.90;999.90;;;12.70;99.90;;;;;;5034985;28;20499;-75
2021/09/08 03:36:32;;;;;;;1999.90;999.90;;;12.70;99.90;;;;;;5038205;28;20028;-75
2021/09/08 03:38:58;;;;;;;1999.90;999.90;;;12.70;99.90;;;;;;5039340;28;20045;-74
2021/09/08 03:41:24;;;;;;;1999.90;999.90;;;12.60;99.90;;;;;;5037165;28;20049;-75
2021/09/08 03:43:50;;;;;;;1999.90;999.90;;;12.50;99.90;;;;;;5046785;28;20033;-74
2021/09/08 03:46:17;;;;;;;1999.90;999.90;;;12.50;99.90;;;;;;5031859;28;20034;-76
2021/09/08 03:48:43;;;;;;;1999.90;999.90;;;12.40;99.90;;;;;;5049588;28;20060;-76
2021/09/08 03:51:10;;;;;;;1999.90;999.90;;;12.40;99.90;;;;;;5053592;28;20033;-76
2021/09/08 03:53:37;;;;;;;1999.90;999.90;;;12.40;99.90;;;;;;5036436;28;20459;-76
2021/09/08 03:56:03;;;;;;;1999.90;999.90;;;12.30;99.90;;;;;;5038058;28;20037;-76
2021/09/08 03:58:29;;;;;;;1999.90;999.90;;;12.30;99.90;;;;;;5047110;28;20463;-76
2021/09/08 04:00:56;;;;;;;1999.90;999.90;;;12.20;99.90;;;;;;5044728;28;20033;-76
2021/09/08 04:03:22;;;;;;;1999.90;999.90;;;12.20;99.90;;;;;;5053930;28;20052;-75
2021/09/08 04:05:49;;;;;;;1999.90;999.90;;;12.20;99.90;;;;;;5048652;28;20108;-74
2021/09/08 04:08:15;;;;;;;1999.90;999.90;;;12.10;99.90;;;;;;5035904;28;20048;-75
2021/09/08 04:10:41;;;;;;;1999.90;999.90;;;12.20;99.90;;;;;;5041634;28;20379;-78
2021/09/08 04:13:07;;;;;;;1999.90;999.90;;;12.20;99.90;;;;;;5065941;28;20036;-75
2021/09/08 04:15:34;;;;;;;1999.90;999.90;;;12.30;99.90;;;;;;5055693;28;20033;-75
2021/09/08 04:18:00;;;;;;;1999.90;999.90;;;12.30;99.90;;;;;;5042545;28;20037;-74
2021/09/08 04:20:26;;;;;;;1999.90;999.90;;;12.40;99.90;;;;;;5044606;28;20044;-75
2021/09/08 04:22:52;;;;;;;1999.90;999.90;;;12.30;99.90;;;;;;5050264;28;20030;-75
2021/09/08 04:25:19;;;;;;;7.45;7.07;;;12.30;99.90;;;;;;5035748;28;20045;-75
2021/09/08 04:27:45;;;;;;;7.25;6.28;;;12.30;99.90;;;;;;5035877;28;20042;-76
2021/09/08 04:30:11;;;;;;;9.35;8.52;;;12.30;99.90;;;;;;5035618;28;20041;-76
2021/09/08 04:32:38;;;;;;;8.90;6.85;;;12.30;99.90;;;;;;5052692;28;20036;-77
2021/09/08 04:35:04;;;;;;;151.43;48.20;;;12.20;99.90;;;;;;5038185;28;20026;-76
2021/09/08 04:37:32;;;;;;;200.73;118.20;;;12.20;99.90;;;;;;5035253;28;20506;-77
2021/09/08 04:39:58;;;;;;;9.10;7.38;;;12.20;99.90;;;;;;5036865;28;20048;-74
2021/09/08 04:42:24;;;;;;;10.88;5.63;;;12.20;99.90;;;;;;5050270;28;20030;-74
2021/09/08 04:44:51;;;;;;;17.30;6.05;;;12.20;99.90;;;;;;5035656;28;20025;-75
2021/09/08 04:47:17;;;;;;;0.00;0.00;;;12.30;99.90;;;;;;5050550;28;20037;-75
2021/09/08 04:49:43;;;;;;;0.10;0.10;;;12.20;99.90;;;;;;5050798;28;20402;-75
2021/09/08 04:52:09;;;;;;;0.08;0.08;;;12.10;99.90;;;;;;5047689;28;20260;-76
2021/09/08 04:54:36;;;;;;;24.35;23.58;;;12.10;99.90;;;;;;5050337;28;20044;-78
2021/09/08 04:57:02;;;;;;;0.00;0.00;;;12.00;99.90;;;;;;5048867;28;20048;-78
2021/09/08 04:59:28;;;;;;;0.00;0.00;;;12.00;99.90;;;;;;5034363;28;20490;-75
2021/09/08 05:01:54;;;;;;;305.40;214.20;;;12.00;99.90;;;;;;5049650;28;20056;-74
2021/09/08 05:04:21;;;;;;;231.30;210.15;;;12.10;99.90;;;;;;5034630;28;20418;-76
2021/09/08 05:06:47;;;;;;;162.90;150.02;;;12.00;99.90;;;;;;5034588;28;20033;-75
2021/09/08 05:09:13;;;;;;;303.52;233.05;;;12.00;99.90;;;;;;5032840;28;20038;-75
2021/09/08 05:11:40;;;;;;;348.20;236.25;;;12.10;99.90;;;;;;5034171;28;20040;-75
2021/09/08 05:14:06;;;;;;;238.55;94.00;;;12.20;99.90;;;;;;5049341;28;20033;-75
2021/09/08 05:16:32;;;;;;;0.85;0.85;;;12.20;99.90;;;;;;5034449;28;20463;-75
2021/09/08 05:18:59;;;;;;;0.30;0.30;;;12.30;99.90;;;;;;5032779;28;20041;-75
2021/09/08 05:21:25;;;;;;;52.30;47.92;;;12.30;99.90;;;;;;5049692;28;20049;-75
2021/09/08 05:23:51;;;;;;;26.33;24.85;;;12.30;99.90;;;;;;5033874;28;20036;-74
2021/09/08 05:26:17;;;;;;;63.05;60.00;;;12.40;99.90;;;;;;5047667;28;20049;-74
2021/09/08 05:28:44;;;;;;;1999.90;999.90;;;12.40;99.90;;;;;;5048444;28;20064;-75
2021/09/08 05:31:10;;;;;;;1999.90;999.90;;;12.50;99.90;;;;;;5035175;28;20091;-75
2021/09/08 05:33:36;;;;;;;1999.90;999.90;;;12.60;99.90;;;;;;5054082;28;21651;-75
2021/09/08 05:36:03;;;;;;;28.88;27.88;;;12.80;99.90;;;;;;5044322;28;20029;-75
2021/09/08 05:38:29;;;;;;;27.00;26.10;;;13.00;99.90;;;;;;5039359;28;20029;-76
2021/09/08 05:40:55;;;;;;;1999.90;999.90;;;13.70;99.90;;;;;;5045345;28;20379;-75
2021/09/08 05:43:21;;;;;;;32.97;31.85;;;14.50;99.90;;;;;;5037829;28;20378;-75
2021/09/08 05:45:47;;;;;;;1999.90;999.90;;;15.40;99.90;;;;;;5034665;28;20030;-76
2021/09/08 05:48:14;;;;;;;175.63;167.55;;;16.30;99.90;;;;;;5032551;28;20418;-75
2021/09/08 05:50:40;;;;;;;228.07;70.20;;;17.10;99.90;;;;;;5037230;28;20051;-75
2021/09/08 05:53:06;;;;;;;1999.90;999.90;;;17.90;98.80;;;;;;5049359;28;20037;-76
2021/09/08 05:55:33;;;;;;;1999.90;999.90;;;17.90;95.60;;;;;;5033642;28;20041;-75
2021/09/08 05:57:59;;;;;;;1999.90;999.90;;;17.40;96.30;;;;;;5046735;28;20060;-75
2021/09/08 06:00:25;;;;;;;7.10;4.22;;;17.20;96.60;;;;;;5039696;28;20060;-75
2021/09/08 06:02:51;;;;;;;11.48;10.27;;;17.50;96.10;;;;;;5033707;28;20493;-75
2021/09/08 06:05:18;;;;;;;427.23;152.98;;;18.00;95.20;;;;;;5034000;28;20029;-76
2021/09/08 06:07:44;;;;;;;40.40;34.83;;;18.30;94.70;;;;;;5047602;28;20052;-77
2021/09/08 06:10:10;;;;;;;1999.90;999.90;;;18.50;93.50;;;;;;5046497;28;20033;-76
2021/09/08 06:12:36;;;;;;;1999.90;999.90;;;19.30;92.10;;;;;;5035253;28;20049;-76
2021/09/08 06:15:03;;;;;;;1999.90;999.90;;;19.80;91.40;;;;;;5034600;28;20390;-75
2021/09/08 06:17:29;;;;;;;1999.90;999.90;;;20.30;90.00;;;;;;5047489;28;20042;-74
2021/09/08 06:19:56;;;;;;;1999.90;999.90;;;20.30;88.70;;;;;;5043644;28;20037;-75
2021/09/08 06:22:22;;;;;;;1999.90;999.90;;;20.20;89.30;;;;;;5042075;28;20033;-76
2021/09/08 06:24:48;;;;;;;1999.90;999.90;;;20.50;87.60;;;;;;5060517;28;20041;-78
2021/09/08 06:27:14;;;;;;;1999.90;999.90;;;20.70;86.70;;;;;;5048920;28;20466;-80
2021/09/08 06:29:40;;;;;;;1999.90;999.90;;;21.00;85.00;;;;;;5033363;28;20041;-78
2021/09/08 06:32:06;;;;;;;1999.90;999.90;;;20.60;86.50;;;;;;5040166;28;20042;-79
2021/09/08 06:34:33;;;;;;;1999.90;999.90;;;20.50;87.00;;;;;;5050823;28;20426;-79
2021/09/08 06:36:59;;;;;;;1999.90;999.90;;;20.40;87.60;;;;;;5033261;28;20029;-78
2021/09/08 06:39:25;;;;;;;1999.90;999.90;;;20.50;88.20;;;;;;5048600;28;20057;-79
2021/09/08 06:41:51;;;;;;;1999.90;999.90;;;20.60;87.50;;;;;;5032700;28;20026;-78
2021/09/08 06:44:18;;;;;;;1999.90;999.90;;;20.90;86.30;;;;;;5033041;28;20037;-79
2021/09/08 06:46:44;;;;;;;1999.90;999.90;;;20.50;87.70;;;;;;5033205;28;20049;-79
2021/09/08 06:49:10;;;;;;;1999.90;999.90;;;20.80;88.60;;;;;;5033420;28;20041;-79
2021/09/08 06:51:36;;;;;;;1999.90;999.90;;;21.40;85.50;;;;;;5039121;28;20467;-79
2021/09/08 06:54:03;;;;;;;1999.90;999.90;;;21.20;85.50;;;;;;5039470;28;20045;-79
2021/09/08 06:56:29;;;;;;;1999.90;999.90;;;21.00;86.60;;;;;;5036742;28;20076;-79
2021/09/08 06:58:56;;;;;;;1999.90;999.90;;;21.30;85.60;;;;;;5034839;28;20037;-79
2021/09/08 07:01:22;;;;;;;28.52;26.48;;;21.00;86.00;;;;;;5032588;28;20029;-78
2021/09/08 07:03:49;;;;;;;13.93;12.48;;;20.40;88.10;;;;;;5047215;28;20029;-79
2021/09/08 07:06:15;;;;;;;38.72;36.47;;;19.80;90.30;;;;;;5041605;28;20044;-78
2021/09/08 07:08:41;;;;;;;773.38;103.22;;;19.90;89.90;;;;;;5046278;28;20044;-79
2021/09/08 07:11:07;;;;;;;49.90;13.38;;;20.00;89.60;;;;;;5032362;28;20040;-79
2021/09/08 07:13:33;;;;;;;3.28;2.50;;;19.80;89.70;;;;;;5039430;28;20462;-80
2021/09/08 07:15:59;;;;;;;54.45;11.75;;;19.50;90.50;;;;;;5046374;28;20025;-78
2021/09/08 07:18:26;;;;;;;452.25;150.32;;;19.40;91.30;;;;;;5032512;28;20060;-79
2021/09/08 07:20:52;;;;;;;62.60;11.85;;;20.30;90.20;;;;;;5046253;28;20371;-80
2021/09/08 07:23:18;;;;;;;1070.63;104.38;;;20.40;88.20;;;;;;5032880;28;20052;-79
2021/09/08 07:25:44;;;;;;;66.75;11.15;;;20.70;87.50;;;;;;5031937;28;20049;-80
2021/09/08 07:28:10;;;;;;;775.08;193.48;;;20.90;87.90;;;;;;5042506;28;20041;-80
2021/09/08 07:30:37;;;;;;;4.55;2.67;;;21.10;84.80;;;;;;5047849;28;20033;-80
2021/09/08 07:33:03;;;;;;;249.27;63.40;;;21.40;84.20;;;;;;5031820;28;20056;-78
2021/09/08 07:35:30;;;;;;;3.70;2.70;;;21.50;82.80;;;;;;5032353;28;20029;-79
2021/09/08 07:37:57;;;;;;;1480.32;188.80;;;21.10;83.30;;;;;;5032455;28;20038;-78
2021/09/08 07:40:24;;;;;;;7.57;6.00;;;21.40;84.40;;;;;;5033069;28;20034;-79
2021/09/08 07:42:51;;;;;;;6.40;4.65;;;22.00;80.20;;;;;;5033834;28;20041;-78
2021/09/08 07:45:19;;;;;;;247.57;31.10;;;21.80;81.70;;;;;;5037795;28;20025;-80
2021/09/08 07:47:45;;;;;;;889.55;620.65;;;21.50;80.80;;;;;;5042183;28;20040;-79
2021/09/08 07:50:12;;;;;;;42.72;41.15;;;21.80;80.70;;;;;;5033507;28;20057;-79
2021/09/08 07:52:38;;;;;;;966.63;163.18;;;22.30;79.80;;;;;;5047778;28;20037;-80
2021/09/08 07:55:06;;;;;;;1999.90;999.90;;;23.20;76.00;;;;;;5033151;28;20037;-79
2021/09/08 07:57:32;;;;;;;303.63;48.42;;;23.40;74.70;;;;;;5032629;28;20040;-79
2021/09/08 07:59:58;;;;;;;814.67;384.02;;;22.70;77.40;;;;;;5033785;28;20034;-79
2021/09/08 08:02:25;;;;;;;1.45;1.35;;;22.50;77.50;;;;;;5043740;28;20034;-78
2021/09/08 08:04:51;;;;;;;4.35;1.83;;;23.00;75.00;;;;;;5048801;28;20418;-77
2021/09/08 08:07:17;;;;;;;1999.90;999.90;;;23.20;74.50;;;;;;5042578;28;20049;-79
2021/09/08 08:09:43;;;;;;;1999.90;999.90;;;22.90;74.60;;;;;;5039595;28;20037;-80
2021/09/08 08:12:10;;;;;;;22.05;13.25;;;22.70;75.20;;;;;;5033723;28;20038;-81
2021/09/08 08:14:37;;;;;;;1999.90;999.90;;;22.60;77.00;;;;;;5033134;28;20041;-80
2021/09/08 08:17:05;;;;;;;1723.60;232.73;;;22.50;75.80;;;;;;5033003;28;20676;-80
2021/09/08 08:19:32;;;;;;;1999.90;999.90;;;22.50;76.80;;;;;;5033540;28;20490;-79
2021/09/08 08:22:00;;;;;;;1999.90;999.90;;;23.20;74.50;;;;;;5032703;28;20041;-80
2021/09/08 08:24:26;;;;;;;1999.90;999.90;;;23.50;72.50;;;;;;5032911;28;20180;-80
2021/09/08 08:26:52;;;;;;;1999.90;999.90;;;23.80;72.20;;;;;;5032634;28;20057;-78
2021/09/08 08:29:19;;;;;;;1999.90;999.90;;;23.70;71.00;;;;;;5039836;28;20052;-79
2021/09/08 08:31:45;;;;;;;1999.90;999.90;;;24.30;69.40;;;;;;5034419;28;20048;-81
2021/09/08 08:34:12;;;;;;;1999.90;999.90;;;23.90;69.90;;;;;;5043272;28;20521;-80
2021/09/08 08:36:38;;;;;;;1999.90;999.90;;;23.90;70.90;;;;;;5053804;28;20037;-80
2021/09/08 08:39:04;;;;;;;1999.90;999.90;;;23.30;69.70;;;;;;5061958;28;20052;-79
2021/09/08 08:41:30;;;;;;;1999.90;999.90;;;23.00;71.00;;;;;;5052152;28;20033;-79
2021/09/08 08:43:56;;;;;;;1999.90;999.90;;;23.80;68.70;;;;;;5042246;28;20056;-78
2021/09/08 08:46:23;;;;;;;174.07;34.03;;;24.80;67.20;;;;;;5049627;28;20028;-79
2021/09/08 08:48:49;;;;;;;8.63;7.53;;;23.80;67.90;;;;;;5061752;28;20053;-81
2021/09/08 08:51:16;;;;;;;1999.90;999.90;;;23.50;68.50;;;;;;5038653;28;21735;-80
2021/09/08 08:53:42;;;;;;;188.23;38.20;;;24.30;66.30;;;;;;5037283;28;20508;-81
2021/09/08 08:56:08;;;;;;;521.22;93.63;;;24.20;66.60;;;;;;5036446;28;20486;-79
2021/09/08 08:58:34;;;;;;;1169.50;276.23;;;24.30;66.10;;;;;;5042240;28;20041;-81
2021/09/08 09:01:17;;;;;;;707.67;419.42;;;23.80;68.10;;;;;;5055327;28;20029;-82
2021/09/08 09:04:15;;;;;;;1999.90;999.90;;;23.90;67.20;;;;;;5039022;28;20029;-80
2021/09/08 09:06:42;;;;;;;1999.90;999.90;;;24.80;64.50;;;;;;5036291;28;20367;-79
2021/09/08 09:09:15;;;;;;;1999.90;999.90;;;26.00;60.60;;;;;;5035700;28;20048;-80
2021/09/08 09:11:44;;;;;;;1999.90;999.90;;;26.70;61.50;;;;;;5046430;28;20422;-80
2021/09/08 09:14:12;;;;;;;6.05;4.80;;;26.50;57.30;;;;;;5035579;28;20052;-79
2021/09/08 09:16:40;;;;;;;701.80;151.43;;;25.90;58.00;;;;;;5052509;28;20565;-81
2021/09/08 09:19:07;;;;;;;209.02;28.48;;;26.00;57.10;;;;;;5042007;28;20032;-80
2021/09/08 09:21:34;;;;;;;1999.90;999.90;;;25.90;57.40;;;;;;5035751;28;20033;-80
2021/09/08 09:24:03;;;;;;;1999.90;999.90;;;25.60;57.30;;;;;;5037272;28;20052;-81
2021/09/08 09:26:32;;;;;;;3.07;2.17;;;26.20;57.30;;;;;;5042140;28;20053;-81
2021/09/08 09:29:09;;;;;;;41.10;29.13;;;25.90;57.20;;;;;;5040037;28;20638;-79
2021/09/08 09:31:50;;;;;;;1999.90;999.90;;;26.30;58.20;;;;;;5051016;28;20100;-81
2021/09/08 09:34:16;;;;;;;405.45;101.85;;;26.80;56.70;;;;;;5035417;28;20669;-81
2021/09/08 09:36:43;;;;;;;3.42;2.42;;;27.40;54.70;;;;;;5035032;28;20044;-82
2021/09/08 09:39:09;;;;;;;82.97;22.85;;;27.50;53.60;;;;;;5034484;28;20048;-78
2021/09/08 09:41:36;;;;;;;3.25;2.75;;;27.40;53.30;;;;;;5035203;28;20060;-78
2021/09/08 09:44:07;;;;;;;6.70;3.72;;;27.60;53.80;;;;;;5034199;28;20041;-79
2021/09/08 09:46:34;;;;;;;1380.57;267.85;;;27.30;53.70;;;;;;5034607;28;20041;-82
2021/09/08 09:49:03;;;;;;;1362.55;557.88;;;26.80;53.20;;;;;;5034190;28;20372;-79
2021/09/08 09:51:30;;;;;;;33.57;24.33;;;26.40;54.20;;;;;;5036760;28;20034;-79
2021/09/08 09:53:56;;;;;;;4.70;3.88;;;26.10;54.80;;;;;;5034068;28;20128;-78
2021/09/08 09:56:22;;;;;;;5.28;3.50;;;26.00;55.80;;;;;;5034446;28;20044;-79
2021/09/08 09:58:49;;;;;;;4.50;4.03;;;26.00;54.80;;;;;;5035118;28;20036;-79
2021/09/08 10:01:16;;;;;;;4.60;3.65;;;26.30;55.30;;;;;;5034106;28;20036;-79
2021/09/08 10:03:44;;;;;;;5.03;3.47;;;26.80;54.70;;;;;;5035006;28;20033;-78
2021/09/08 10:06:10;;;;;;;4.30;3.30;;;26.50;54.00;;;;;;5034189;28;20048;-79
2021/09/08 10:08:42;;;;;;;6.18;3.28;;;26.40;55.40;;;;;;5033358;28;20045;-81
2021/09/08 10:11:10;;;;;;;5.10;3.78;;;26.10;54.70;;;;;;5033516;28;20386;-80
2021/09/08 10:13:42;;;;;;;4.05;3.15;;;26.30;54.70;;;;;;5033421;28;20049;-80
2021/09/08 10:16:10;;;;;;;96.25;10.70;;;26.00;54.70;;;;;;5033632;28;20033;-82
2021/09/08 10:18:36;;;;;;;25.13;4.50;;;25.40;53.90;;;;;;5037270;28;20033;-82
2021/09/08 10:21:05;;;;;;;5.25;3.40;;;25.50;55.00;;;;;;5048443;28;20042;-81
2021/09/08 10:23:34;;;;;;;6.03;4.22;;;25.60;54.60;;;;;;5034159;28;20044;-82
2021/09/08 10:26:10;;;;;;;3.72;3.25;;;25.30;54.10;;;;;;5044360;28;20050;-82
2021/09/08 10:28:38;;;;;;;5.45;4.13;;;25.30;53.60;;;;;;5047519;28;20044;-82
2021/09/08 10:31:04;;;;;;;5.35;3.72;;;25.20;53.90;;;;;;5039465;28;20056;-81
2021/09/08 10:33:31;;;;;;;5.75;3.42;;;25.40;53.10;;;;;;5034780;28;20371;-80
2021/09/08 10:35:58;;;;;;;6.53;3.85;;;25.30;53.20;;;;;;5034390;28;20041;-80
2021/09/08 10:38:25;;;;;;;4.40;2.95;;;25.40;52.80;;;;;;5041053;28;20053;-78
2021/09/08 10:40:52;;;;;;;6.18;4.10;;;25.40;53.00;;;;;;5035412;28;20056;-78
2021/09/08 10:43:33;;;;;;;5.30;3.92;;;25.50;52.90;;;;;;5044900;28;20451;-85
2021/09/08 10:46:00;;;;;;;3.97;2.63;;;25.50;52.30;;;;;;5033331;28;20116;-80
2021/09/08 10:48:38;;;;;;;5.68;2.97;;;25.60;52.40;;;;;;5034390;28;20037;-80
2021/09/08 10:51:20;;;;;;;5.25;3.15;;;25.80;51.60;;;;;;5065655;28;20038;-76
2021/09/08 10:54:07;;;;;;;4.35;2.83;;;25.50;51.30;;;;;;5049766;28;20041;-81
2021/09/08 10:56:45;;;;;;;6.18;3.08;;;25.60;51.50;;;;;;5032342;28;20049;-81
2021/09/08 10:59:11;;;;;;;5.00;3.67;;;25.70;51.30;;;;;;5053210;28;20040;-77
2021/09/08 11:01:39;;;;;;;5.70;3.28;;;25.70;50.30;;;;;;5033472;28;20029;-80
2021/09/08 11:04:13;;;;;;;4.90;3.10;;;25.60;50.40;;;;;;5035122;28;20045;-85
2021/09/08 11:06:45;;;;;;;5.63;3.63;;;25.70;50.70;;;;;;5043979;28;20040;-85
2021/09/08 11:09:13;;;;;;;5.68;3.85;;;26.10;51.20;;;;;;5047802;28;20046;-82
2021/09/08 11:11:52;;;;;;;4.47;3.15;;;26.00;50.10;;;;;;5033210;28;20029;-79
2021/09/08 11:14:21;;;;;;;8.20;2.88;;;26.20;51.40;;;;;;5033015;28;20398;-84
2021/09/08 11:16:47;;;;;;;5.05;3.15;;;26.30;49.90;;;;;;5032554;28;20485;-78
2021/09/08 11:19:14;;;;;;;6.18;3.17;;;26.00;49.90;;;;;;5035699;28;20040;-80
2021/09/08 11:21:41;;;;;;;5.22;3.00;;;26.00;48.90;;;;;;5039686;28;20041;-80
2021/09/08 11:24:10;;;;;;;4.47;3.00;;;26.10;49.80;;;;;;5042021;28;20044;-81
2021/09/08 11:26:39;;;;;;;130.15;14.95;;;26.00;49.10;;;;;;5038938;28;20049;-82
2021/09/08 11:29:06;;;;;;;4.05;2.80;;;26.00;49.20;;;;;;5033767;28;20042;-83
2021/09/08 11:31:36;;;;;;;5.35;2.42;;;26.40;48.80;;;;;;5034695;28;20037;-80
2021/09/08 11:34:03;;;;;;;4.20;2.85;;;26.50;47.60;;;;;;5033931;28;20096;-79
2021/09/08 11:36:30;;;;;;;3.95;2.42;;;26.80;47.00;;;;;;5034036;28;20036;-84
2021/09/08 11:38:59;;;;;;;4.15;2.55;;;26.80;48.30;;;;;;5049120;28;20033;-78
2021/09/08 11:41:27;;;;;;;4.72;2.80;;;26.60;48.20;;;;;;5034631;28;20029;-81
2021/09/08 11:43:56;;;;;;;4.68;3.40;;;26.50;48.10;;;;;;5033193;28;20041;-86
2021/09/08 11:46:27;;;;;;;127.40;31.88;;;26.50;48.80;;;;;;5046202;28;20493;-81
2021/09/08 11:49:12;;;;;;;5.10;3.45;;;26.60;48.80;;;;;;5050536;28;20044;-83
2021/09/08 11:51:42;;;;;;;4.53;2.80;;;26.90;47.40;;;;;;5034687;28;20036;-80
2021/09/08 11:54:17;;;;;;;4.57;3.33;;;26.70;46.70;;;;;;5043816;28;20034;-79
2021/09/08 11:56:55;;;;;;;4.40;2.83;;;26.40;47.30;;;;;;5032403;28;20050;-78
2021/09/08 11:59:33;;;;;;;4.30;3.20;;;26.40;46.60;;;;;;5043396;28;20387;-79
2021/09/08 12:02:01;;;;;;;4.03;2.90;;;26.50;46.80;;;;;;5032105;28;20382;-80
2021/09/08 12:04:29;;;;;;;4.90;3.35;;;26.70;47.00;;;;;;5032306;28;20040;-81
2021/09/08 12:07:01;;;;;;;3.92;2.80;;;26.70;46.80;;;;;;5031326;28;20025;-77
2021/09/08 12:09:29;;;;;;;4.10;2.95;;;27.00;46.20;;;;;;5034655;28;20049;-83
2021/09/08 12:12:04;;;;;;;5.05;3.00;;;27.20;46.20;;;;;;5054304;28;20395;-78
2021/09/08 12:14:34;;;;;;;6.50;3.20;;;27.00;45.60;;;;;;5039697;28;20386;-78
2021/09/08 12:17:23;;;;;;;;;;;26.80;45.70;;;;;;5055826;28;20045;-78